Terminal Aerodrome Forecast
Issued by NWS Central Illinois

Home | Current Version | Previous Version | Text Only | Print | Product List | Glossary On
Versions: 1 2 3 4 5 6 7 8 9 10 11 12 13
000
FTUS43 KILX 010527
TAFSPI
TAF
KSPI 010527Z 0106/0206 32003KT P6SM SCT050 BKN250
     FM011500 23009KT P6SM SKC
     FM020000 21005KT P6SM SCT250=

USA.gov is the U.S. government's official web portal to all federal, state and local government web resources and services.